Terminal Aerodrome Forecast
Issued by NWS

Home | Current Version | Previous Version | Text Only | Print | Product List | Glossary On
Versions: 1 2 3 4 5 6 7 8 9 10 11 12 13 14
633
FTUS44 KSJT 261720
TAFJCT
TAF
KJCT 261720Z 2618/2718 02010KT P6SM -SHRA BKN012
      TEMPO 2618/2621 4SM -RA BKN008
     FM262300 01008KT P6SM VCSH BKN035
     FM270400 04004KT P6SM BKN050=

USA.gov is the U.S. government's official web portal to all federal, state and local government web resources and services.